Terminal Aerodrome Forecast
Issued by NWS Tampa Bay Area, FL

Home | Current Version | Previous Version | Text Only | Print | Product List | Glossary On
Versions: 1 2 3 4 5 6 7 8 9 10 11 12 13 14 15 16 17 18 19
000
FTUS42 KTBW 241100 CCA
TAFSRQ
TAF COR
KSRQ 241148Z 2412/2512 18012KT 4SM BR OVC004
      TEMPO 2412/2414 1SM BR VV002
     FM241500 19013G20KT 6SM BR BKN008
     FM241700 19013G20KT P6SM SCT008 BKN020
     FM242000 19013G20KT P6SM SCT020 SCT250
     FM250000 18005KT P6SM SCT010 BKN250
     FM250200 17005KT 4SM BR BKN010=

USA.gov is the U.S. government's official web portal to all federal, state and local government web resources and services.